Aérodrome :
LOGIN :

S'inscrire | Disclaimer

   EN    FR    IT 

 










Légende :    VFR   VFR Marginal   IFR   IFR Intensif   IFR Très Intensif
Visi : 
Plafond : 
>= 8 km
>= 3000ft
5 à 8 km
1000 à 3000 ft
1500m à 5 km
500 à 1000 ft
800 à 1500m
200 à 500 ft
< 800m
< 200 ft
Symboles :   Orages  Brouillard  Fortes neiges  Fortes précipitations  Vent > 20 kt
SIGMETs :   Divers  Orages  Givrage  Turbulence  Onde Orograph.  Cendres Volcan.







- Altitude de l'aérodrome : 1106 ft
- Voir les cartes d'approche


LFSO - Nancy / Ochey

DERNIER METAR :
  • 281730Z AUTO 28005KT 260V320 CAVOK 16/07 Q1024 TEMPO FEW040TCU SCT050

METARs EXPIRÉS :
  • 281700Z AUTO 27008KT CAVOK 17/07 Q1024 TEMPO FEW040TCU SCT050
  • 281630Z AUTO 26009KT 230V290 CAVOK 18/07 Q1023 TEMPO FEW040TCU SCT050
  • 281600Z AUTO 24009KT 210V280 CAVOK 18/07 Q1023 TEMPO FEW040TCU SCT050
  • 281530Z AUTO 26008KT 230V300 9999 FEW049 18/08 Q1023 TEMPO FEW040TCU SCT050
  • 281500Z AUTO 26011KT 230V320 CAVOK 19/07 Q1023 TEMPO FEW040TCU SCT050

TAF TAF LFSO
Valide du 28 à 15h jusqu'au 29 à 15h UTC


281400Z 2815/2915 23010KT CAVOK
PROB40
TEMPO 2815/2820 FEW040TCU SCT050
Pas de NOTAMs connus pour ce terrain.



MET'MAP, la Météo Aéronautique d'un coup d'oeil ! - Copyright ORBIFLY Décembre 2007 - Disclaimer

ORBIFLY MET'MAP TEAM :

Programmation & Développement : Alexandra Zaïnal
Conception & Développement : Baudouin d'Aumeries
Co-Programmation & Développement : Marc-Olivier Méhu
Soutien technique & logistique : Manuel Goepfert

Contact : metmap@orbifly.com




SOURCES & CREDITS :

   NOAA